sensor_id;sensor_type;location;lat;lon;timestamp;P1;durP1;ratioP1;P2;durP2;ratioP2
8500;SDS011;4288;48.484;10.024;2022-09-16T04:03:28;2.50;;;1.10;;
8500;SDS011;4288;48.484;10.024;2022-09-16T04:05:55;1.73;;;1.20;;
8500;SDS011;4288;48.484;10.024;2022-09-16T04:08:22;1.60;;;1.20;;
8500;SDS011;4288;48.484;10.024;2022-09-16T04:10:53;1.27;;;1.17;;
8500;SDS011;4288;48.484;10.024;2022-09-16T04:13:20;1.10;;;1.10;;
8500;SDS011;4288;48.484;10.024;2022-09-16T04:15:47;1.63;;;1.30;;
8500;SDS011;4288;48.484;10.024;2022-09-16T04:18:14;2.60;;;1.40;;
8500;SDS011;4288;48.484;10.024;2022-09-16T04:20:42;2.40;;;1.40;;
8500;SDS011;4288;48.484;10.024;2022-09-16T04:23:09;1.30;;;1.20;;
8500;SDS011;4288;48.484;10.024;2022-09-16T04:25:36;1.10;;;1.00;;
8500;SDS011;4288;48.484;10.024;2022-09-16T04:28:04;2.83;;;1.40;;
8500;SDS011;4288;48.484;10.024;2022-09-16T04:30:31;1.10;;;1.00;;
8500;SDS011;4288;48.484;10.024;2022-09-16T04:32:58;0.90;;;0.90;;
8500;SDS011;4288;48.484;10.024;2022-09-16T04:35:25;1.93;;;1.50;;
8500;SDS011;4288;48.484;10.024;2022-09-16T04:37:53;1.40;;;1.30;;
8500;SDS011;4288;48.484;10.024;2022-09-16T04:40:20;1.50;;;1.20;;
8500;SDS011;4288;48.484;10.024;2022-09-16T04:42:47;1.43;;;1.33;;
8500;SDS011;4288;48.484;10.024;2022-09-16T04:45:14;1.30;;;1.20;;
8500;SDS011;4288;48.484;10.024;2022-09-16T04:47:41;1.50;;;1.40;;
8500;SDS011;4288;48.484;10.024;2022-09-16T04:50:08;0.90;;;0.90;;
8500;SDS011;4288;48.484;10.024;2022-09-16T04:52:36;1.67;;;1.17;;
8500;SDS011;4288;48.484;10.024;2022-09-16T04:55:04;1.20;;;1.13;;
8500;SDS011;4288;48.484;10.024;2022-09-16T04:57:32;2.67;;;1.40;;
8500;SDS011;4288;48.484;10.024;2022-09-16T04:59:58;1.47;;;1.27;;
8500;SDS011;4288;48.484;10.024;2022-09-16T05:02:25;1.17;;;1.07;;
8500;SDS011;4288;48.484;10.024;2022-09-16T05:04:53;1.40;;;1.30;;
8500;SDS011;4288;48.484;10.024;2022-09-16T05:07:20;1.30;;;1.20;;
8500;SDS011;4288;48.484;10.024;2022-09-16T05:09:47;2.07;;;1.50;;
8500;SDS011;4288;48.484;10.024;2022-09-16T05:12:15;1.40;;;1.30;;
8500;SDS011;4288;48.484;10.024;2022-09-16T05:14:42;1.33;;;1.10;;
8500;SDS011;4288;48.484;10.024;2022-09-16T05:17:09;2.30;;;1.20;;
8500;SDS011;4288;48.484;10.024;2022-09-16T05:19:36;3.63;;;1.63;;
8500;SDS011;4288;48.484;10.024;2022-09-16T05:22:02;1.60;;;1.50;;
8500;SDS011;4288;48.484;10.024;2022-09-16T05:24:32;2.20;;;1.40;;
8500;SDS011;4288;48.484;10.024;2022-09-16T05:26:59;1.33;;;1.23;;
8500;SDS011;4288;48.484;10.024;2022-09-16T05:29:27;1.53;;;1.27;;
8500;SDS011;4288;48.484;10.024;2022-09-16T05:31:54;4.10;;;1.60;;
8500;SDS011;4288;48.484;10.024;2022-09-16T05:34:22;4.50;;;1.33;;
8500;SDS011;4288;48.484;10.024;2022-09-16T05:36:52;1.23;;;1.13;;
8500;SDS011;4288;48.484;10.024;2022-09-16T05:39:20;1.00;;;0.93;;
8500;SDS011;4288;48.484;10.024;2022-09-16T05:41:47;1.90;;;1.50;;
8500;SDS011;4288;48.484;10.024;2022-09-16T05:44:14;2.03;;;1.33;;
8500;SDS011;4288;48.484;10.024;2022-09-16T05:46:42;1.50;;;1.40;;
8500;SDS011;4288;48.484;10.024;2022-09-16T05:49:09;1.30;;;1.20;;
8500;SDS011;4288;48.484;10.024;2022-09-16T05:51:36;1.40;;;1.30;;
8500;SDS011;4288;48.484;10.024;2022-09-16T05:54:05;2.77;;;1.50;;
8500;SDS011;4288;48.484;10.024;2022-09-16T05:56:32;1.63;;;1.10;;
8500;SDS011;4288;48.484;10.024;2022-09-16T05:58:59;2.53;;;1.30;;
8500;SDS011;4288;48.484;10.024;2022-09-16T06:01:28;2.10;;;1.97;;
8500;SDS011;4288;48.484;10.024;2022-09-16T06:03:58;2.80;;;1.50;;
8500;SDS011;4288;48.484;10.024;2022-09-16T06:06:26;1.40;;;1.30;;
8500;SDS011;4288;48.484;10.024;2022-09-16T06:08:54;2.53;;;2.33;;
8500;SDS011;4288;48.484;10.024;2022-09-16T06:11:22;2.70;;;1.60;;
8500;SDS011;4288;48.484;10.024;2022-09-16T06:13:51;1.60;;;1.50;;
8500;SDS011;4288;48.484;10.024;2022-09-16T06:16:20;1.37;;;1.27;;
8500;SDS011;4288;48.484;10.024;2022-09-16T06:18:47;1.47;;;1.20;;
8500;SDS011;4288;48.484;10.024;2022-09-16T06:21:15;1.70;;;1.60;;
8500;SDS011;4288;48.484;10.024;2022-09-16T06:23:42;5.20;;;1.87;;
8500;SDS011;4288;48.484;10.024;2022-09-16T06:26:10;1.80;;;1.57;;
8500;SDS011;4288;48.484;10.024;2022-09-16T06:28:39;3.60;;;1.43;;
8500;SDS011;4288;48.484;10.024;2022-09-16T06:31:07;4.70;;;1.53;;
8500;SDS011;4288;48.484;10.024;2022-09-16T06:33:35;1.53;;;1.43;;
8500;SDS011;4288;48.484;10.024;2022-09-16T06:36:03;6.30;;;2.10;;
8500;SDS011;4288;48.484;10.024;2022-09-16T06:38:32;5.97;;;1.20;;
8500;SDS011;4288;48.484;10.024;2022-09-16T06:40:59;2.87;;;1.40;;
8500;SDS011;4288;48.484;10.024;2022-09-16T06:43:26;4.00;;;1.60;;
8500;SDS011;4288;48.484;10.024;2022-09-16T06:45:56;2.43;;;1.47;;
8500;SDS011;4288;48.484;10.024;2022-09-16T06:48:24;2.37;;;1.80;;
8500;SDS011;4288;48.484;10.024;2022-09-16T06:50:58;2.00;;;1.20;;
8500;SDS011;4288;48.484;10.024;2022-09-16T06:53:25;3.07;;;1.50;;
8500;SDS011;4288;48.484;10.024;2022-09-16T06:55:53;2.87;;;1.70;;
8500;SDS011;4288;48.484;10.024;2022-09-16T06:58:20;1.80;;;1.43;;
8500;SDS011;4288;48.484;10.024;2022-09-16T07:00:47;3.23;;;1.53;;
8500;SDS011;4288;48.484;10.024;2022-09-16T07:03:15;2.70;;;1.70;;
8500;SDS011;4288;48.484;10.024;2022-09-16T07:05:42;3.23;;;1.40;;
8500;SDS011;4288;48.484;10.024;2022-09-16T07:08:08;4.53;;;1.67;;
8500;SDS011;4288;48.484;10.024;2022-09-16T07:10:35;4.40;;;1.60;;
8500;SDS011;4288;48.484;10.024;2022-09-16T07:13:03;2.60;;;1.70;;
8500;SDS011;4288;48.484;10.024;2022-09-16T07:15:30;3.23;;;1.67;;
8500;SDS011;4288;48.484;10.024;2022-09-16T07:17:57;1.70;;;1.60;;
8500;SDS011;4288;48.484;10.024;2022-09-16T07:20:24;2.20;;;2.00;;
8500;SDS011;4288;48.484;10.024;2022-09-16T07:22:51;2.43;;;1.43;;
8500;SDS011;4288;48.484;10.024;2022-09-16T07:25:18;3.40;;;1.70;;
8500;SDS011;4288;48.484;10.024;2022-09-16T07:27:46;4.00;;;1.77;;
8500;SDS011;4288;48.484;10.024;2022-09-16T07:30:14;9.23;;;2.90;;
8500;SDS011;4288;48.484;10.024;2022-09-16T07:32:42;2.30;;;1.77;;
8500;SDS011;4288;48.484;10.024;2022-09-16T07:35:09;1.53;;;1.40;;
8500;SDS011;4288;48.484;10.024;2022-09-16T07:37:36;6.03;;;2.50;;
8500;SDS011;4288;48.484;10.024;2022-09-16T07:40:03;1.93;;;1.30;;
8500;SDS011;4288;48.484;10.024;2022-09-16T07:42:31;3.17;;;1.70;;
8500;SDS011;4288;48.484;10.024;2022-09-16T07:44:58;2.93;;;1.73;;
8500;SDS011;4288;48.484;10.024;2022-09-16T07:47:26;3.63;;;1.50;;
8500;SDS011;4288;48.484;10.024;2022-09-16T07:49:53;2.10;;;1.90;;
8500;SDS011;4288;48.484;10.024;2022-09-16T07:52:20;1.73;;;1.63;;
8500;SDS011;4288;48.484;10.024;2022-09-16T07:54:50;3.00;;;1.77;;
8500;SDS011;4288;48.484;10.024;2022-09-16T07:57:16;2.57;;;1.90;;
8500;SDS011;4288;48.484;10.024;2022-09-16T07:59:43;2.77;;;2.17;;
8500;SDS011;4288;48.484;10.024;2022-09-16T08:02:10;2.27;;;1.90;;
8500;SDS011;4288;48.484;10.024;2022-09-16T08:04:38;3.07;;;2.00;;
8500;SDS011;4288;48.484;10.024;2022-09-16T08:07:05;2.40;;;1.60;;
8500;SDS011;4288;48.484;10.024;2022-09-16T08:09:32;2.60;;;1.63;;
8500;SDS011;4288;48.484;10.024;2022-09-16T08:12:00;3.57;;;2.20;;
8500;SDS011;4288;48.484;10.024;2022-09-16T08:14:28;6.47;;;2.23;;
8500;SDS011;4288;48.484;10.024;2022-09-16T08:16:55;4.33;;;2.10;;
8500;SDS011;4288;48.484;10.024;2022-09-16T08:19:22;4.53;;;1.57;;
8500;SDS011;4288;48.484;10.024;2022-09-16T08:21:50;2.33;;;1.70;;
8500;SDS011;4288;48.484;10.024;2022-09-16T08:24:17;4.30;;;1.80;;
8500;SDS011;4288;48.484;10.024;2022-09-16T08:26:44;6.60;;;1.53;;
8500;SDS011;4288;48.484;10.024;2022-09-16T08:29:11;2.43;;;2.20;;
8500;SDS011;4288;48.484;10.024;2022-09-16T08:31:37;2.13;;;1.67;;
8500;SDS011;4288;48.484;10.024;2022-09-16T08:34:04;3.70;;;2.00;;
8500;SDS011;4288;48.484;10.024;2022-09-16T08:36:31;2.13;;;1.93;;
8500;SDS011;4288;48.484;10.024;2022-09-16T08:39:00;2.17;;;1.70;;
8500;SDS011;4288;48.484;10.024;2022-09-16T08:41:32;6.60;;;2.00;;
8500;SDS011;4288;48.484;10.024;2022-09-16T08:44:16;4.50;;;1.80;;
8500;SDS011;4288;48.484;10.024;2022-09-16T08:46:49;2.10;;;1.90;;
8500;SDS011;4288;48.484;10.024;2022-09-16T08:49:19;2.00;;;1.83;;
8500;SDS011;4288;48.484;10.024;2022-09-16T08:51:51;3.67;;;1.70;;
8500;SDS011;4288;48.484;10.024;2022-09-16T08:54:24;2.40;;;2.00;;
8500;SDS011;4288;48.484;10.024;2022-09-16T08:56:52;4.30;;;2.00;;
8500;SDS011;4288;48.484;10.024;2022-09-16T08:59:20;3.17;;;1.87;;
8500;SDS011;4288;48.484;10.024;2022-09-16T09:01:51;4.00;;;1.43;;
8500;SDS011;4288;48.484;10.024;2022-09-16T09:04:22;3.90;;;1.63;;
8500;SDS011;4288;48.484;10.024;2022-09-16T09:06:52;3.83;;;1.60;;
8500;SDS011;4288;48.484;10.024;2022-09-16T09:09:27;4.00;;;1.73;;
8500;SDS011;4288;48.484;10.024;2022-09-16T09:12:08;4.10;;;2.30;;
8500;SDS011;4288;48.484;10.024;2022-09-16T09:14:41;2.20;;;1.97;;
8500;SDS011;4288;48.484;10.024;2022-09-16T09:17:20;2.57;;;1.57;;
8500;SDS011;4288;48.484;10.024;2022-09-16T09:19:55;2.73;;;1.90;;
8500;SDS011;4288;48.484;10.024;2022-09-16T09:22:34;2.30;;;1.90;;
8500;SDS011;4288;48.484;10.024;2022-09-16T09:25:19;2.60;;;1.67;;
8500;SDS011;4288;48.484;10.024;2022-09-16T09:27:50;2.10;;;1.53;;
8500;SDS011;4288;48.484;10.024;2022-09-16T09:30:24;2.00;;;1.63;;
8500;SDS011;4288;48.484;10.024;2022-09-16T09:32:57;1.67;;;1.57;;
8500;SDS011;4288;48.484;10.024;2022-09-16T09:35:35;3.57;;;2.70;;
8500;SDS011;4288;48.484;10.024;2022-09-16T09:38:19;1.57;;;1.47;;
8500;SDS011;4288;48.484;10.024;2022-09-16T09:40:59;4.63;;;1.90;;
8500;SDS011;4288;48.484;10.024;2022-09-16T09:43:31;3.07;;;1.80;;
8500;SDS011;4288;48.484;10.024;2022-09-16T09:46:01;2.60;;;1.50;;
8500;SDS011;4288;48.484;10.024;2022-09-16T09:48:31;1.90;;;1.30;;
8500;SDS011;4288;48.484;10.024;2022-09-16T09:51:03;2.40;;;1.57;;
8500;SDS011;4288;48.484;10.024;2022-09-16T09:53:38;3.60;;;1.50;;
8500;SDS011;4288;48.484;10.024;2022-09-16T09:56:11;1.60;;;1.47;;
8500;SDS011;4288;48.484;10.024;2022-09-16T09:58:42;1.80;;;1.70;;
8500;SDS011;4288;48.484;10.024;2022-09-16T10:01:13;1.60;;;1.20;;
8500;SDS011;4288;48.484;10.024;2022-09-16T10:03:41;1.60;;;1.50;;
8500;SDS011;4288;48.484;10.024;2022-09-16T10:06:09;6.50;;;1.60;;
8500;SDS011;4288;48.484;10.024;2022-09-16T10:08:41;1.53;;;1.40;;
8500;SDS011;4288;48.484;10.024;2022-09-16T10:11:16;4.30;;;1.80;;
8500;SDS011;4288;48.484;10.024;2022-09-16T10:13:48;5.43;;;3.03;;
8500;SDS011;4288;48.484;10.024;2022-09-16T10:16:18;5.30;;;2.07;;
8500;SDS011;4288;48.484;10.024;2022-09-16T10:18:52;4.00;;;1.50;;
8500;SDS011;4288;48.484;10.024;2022-09-16T10:21:22;3.20;;;1.93;;
8500;SDS011;4288;48.484;10.024;2022-09-16T10:23:52;1.17;;;1.10;;
8500;SDS011;4288;48.484;10.024;2022-09-16T10:26:22;3.67;;;2.00;;
8500;SDS011;4288;48.484;10.024;2022-09-16T10:28:54;1.80;;;1.50;;
8500;SDS011;4288;48.484;10.024;2022-09-16T10:31:23;9.53;;;1.30;;
8500;SDS011;4288;48.484;10.024;2022-09-16T10:33:52;1.30;;;1.20;;
8500;SDS011;4288;48.484;10.024;2022-09-16T10:36:19;1.33;;;1.10;;
8500;SDS011;4288;48.484;10.024;2022-09-16T10:38:51;5.87;;;1.70;;
8500;SDS011;4288;48.484;10.024;2022-09-16T10:41:20;2.57;;;1.43;;
8500;SDS011;4288;48.484;10.024;2022-09-16T10:43:50;1.53;;;1.43;;
8500;SDS011;4288;48.484;10.024;2022-09-16T10:46:19;4.23;;;2.03;;
8500;SDS011;4288;48.484;10.024;2022-09-16T10:48:46;2.43;;;1.30;;
8500;SDS011;4288;48.484;10.024;2022-09-16T10:51:21;2.33;;;1.37;;
8500;SDS011;4288;48.484;10.024;2022-09-16T10:53:51;2.40;;;1.20;;
8500;SDS011;4288;48.484;10.024;2022-09-16T10:56:20;2.13;;;1.40;;
8500;SDS011;4288;48.484;10.024;2022-09-16T10:58:49;1.87;;;1.60;;
8500;SDS011;4288;48.484;10.024;2022-09-16T11:01:28;1.50;;;1.40;;
8500;SDS011;4288;48.484;10.024;2022-09-16T11:04:13;2.93;;;1.60;;
8500;SDS011;4288;48.484;10.024;2022-09-16T11:07:06;3.13;;;1.37;;
8500;SDS011;4288;48.484;10.024;2022-09-16T11:09:38;2.30;;;1.60;;
8500;SDS011;4288;48.484;10.024;2022-09-16T11:12:18;1.60;;;1.40;;
8500;SDS011;4288;48.484;10.024;2022-09-16T11:14:56;1.43;;;1.33;;
8500;SDS011;4288;48.484;10.024;2022-09-16T11:17:33;1.70;;;1.60;;
8500;SDS011;4288;48.484;10.024;2022-09-16T11:20:23;1.40;;;1.27;;
8500;SDS011;4288;48.484;10.024;2022-09-16T11:23:00;1.77;;;1.20;;
8500;SDS011;4288;48.484;10.024;2022-09-16T11:25:37;2.30;;;1.43;;
8500;SDS011;4288;48.484;10.024;2022-09-16T11:28:25;2.30;;;1.30;;
8500;SDS011;4288;48.484;10.024;2022-09-16T11:31:10;2.90;;;1.70;;
8500;SDS011;4288;48.484;10.024;2022-09-16T11:33:43;4.10;;;1.10;;
8500;SDS011;4288;48.484;10.024;2022-09-16T11:36:20;1.60;;;1.30;;
8500;SDS011;4288;48.484;10.024;2022-09-16T11:39:04;5.27;;;2.00;;
8500;SDS011;4288;48.484;10.024;2022-09-16T11:41:37;4.20;;;1.00;;
8500;SDS011;4288;48.484;10.024;2022-09-16T11:47:15;1.63;;;1.33;;
8500;SDS011;4288;48.484;10.024;2022-09-16T11:50:06;1.33;;;1.17;;
8500;SDS011;4288;48.484;10.024;2022-09-16T11:52:53;3.77;;;1.10;;
8500;SDS011;4288;48.484;10.024;2022-09-16T11:55:29;3.83;;;1.40;;
8500;SDS011;4288;48.484;10.024;2022-09-16T11:58:02;6.00;;;1.47;;
8500;SDS011;4288;48.484;10.024;2022-09-16T12:00:34;2.40;;;1.40;;
8500;SDS011;4288;48.484;10.024;2022-09-16T12:03:08;2.73;;;1.93;;
8500;SDS011;4288;48.484;10.024;2022-09-16T12:05:38;2.00;;;1.20;;
8500;SDS011;4288;48.484;10.024;2022-09-16T12:08:09;2.57;;;1.20;;
8500;SDS011;4288;48.484;10.024;2022-09-16T12:10:38;1.97;;;1.40;;
8500;SDS011;4288;48.484;10.024;2022-09-16T12:13:10;2.20;;;1.50;;
8500;SDS011;4288;48.484;10.024;2022-09-16T12:15:41;4.47;;;1.70;;
8500;SDS011;4288;48.484;10.024;2022-09-16T12:18:14;3.27;;;1.80;;
8500;SDS011;4288;48.484;10.024;2022-09-16T12:20:44;2.10;;;1.90;;
8500;SDS011;4288;48.484;10.024;2022-09-16T12:23:16;12.63;;;2.83;;
8500;SDS011;4288;48.484;10.024;2022-09-16T12:25:44;2.97;;;2.00;;
8500;SDS011;4288;48.484;10.024;2022-09-16T12:28:14;13.90;;;2.50;;
8500;SDS011;4288;48.484;10.024;2022-09-16T12:30:45;3.43;;;1.97;;
8500;SDS011;4288;48.484;10.024;2022-09-16T12:33:17;4.93;;;2.10;;
8500;SDS011;4288;48.484;10.024;2022-09-16T12:35:48;2.70;;;2.17;;
8500;SDS011;4288;48.484;10.024;2022-09-16T12:38:19;3.60;;;2.30;;
8500;SDS011;4288;48.484;10.024;2022-09-16T12:40:51;8.60;;;2.67;;
8500;SDS011;4288;48.484;10.024;2022-09-16T12:43:35;4.70;;;2.70;;
8500;SDS011;4288;48.484;10.024;2022-09-16T12:46:13;3.20;;;1.97;;
8500;SDS011;4288;48.484;10.024;2022-09-16T12:49:08;6.10;;;2.60;;
8500;SDS011;4288;48.484;10.024;2022-09-16T12:51:47;9.47;;;2.23;;
8500;SDS011;4288;48.484;10.024;2022-09-16T12:54:33;4.90;;;3.03;;
8500;SDS011;4288;48.484;10.024;2022-09-16T12:57:14;3.60;;;2.00;;
8500;SDS011;4288;48.484;10.024;2022-09-16T13:00:02;5.93;;;2.73;;
8500;SDS011;4288;48.484;10.024;2022-09-16T13:02:33;9.63;;;2.67;;
8500;SDS011;4288;48.484;10.024;2022-09-16T13:05:09;9.73;;;2.23;;
8500;SDS011;4288;48.484;10.024;2022-09-16T13:07:39;4.93;;;2.50;;
8500;SDS011;4288;48.484;10.024;2022-09-16T13:10:07;11.30;;;3.20;;
8500;SDS011;4288;48.484;10.024;2022-09-16T13:12:40;6.77;;;2.83;;
8500;SDS011;4288;48.484;10.024;2022-09-16T13:15:07;8.33;;;2.77;;
8500;SDS011;4288;48.484;10.024;2022-09-16T13:17:45;7.43;;;3.03;;
8500;SDS011;4288;48.484;10.024;2022-09-16T13:20:18;17.57;;;3.80;;
8500;SDS011;4288;48.484;10.024;2022-09-16T13:22:47;6.80;;;2.63;;
8500;SDS011;4288;48.484;10.024;2022-09-16T13:25:19;12.10;;;3.60;;
8500;SDS011;4288;48.484;10.024;2022-09-16T13:27:55;9.17;;;3.13;;
8500;SDS011;4288;48.484;10.024;2022-09-16T13:30:27;6.63;;;2.50;;
8500;SDS011;4288;48.484;10.024;2022-09-16T13:32:57;5.37;;;3.43;;
8500;SDS011;4288;48.484;10.024;2022-09-16T13:35:37;5.20;;;3.27;;
8500;SDS011;4288;48.484;10.024;2022-09-16T13:38:20;4.43;;;2.90;;
8500;SDS011;4288;48.484;10.024;2022-09-16T13:40:52;7.47;;;3.40;;
8500;SDS011;4288;48.484;10.024;2022-09-16T13:43:30;10.70;;;3.40;;
8500;SDS011;4288;48.484;10.024;2022-09-16T13:46:05;9.23;;;3.30;;
8500;SDS011;4288;48.484;10.024;2022-09-16T13:48:38;4.67;;;3.30;;
8500;SDS011;4288;48.484;10.024;2022-09-16T13:51:12;6.83;;;3.00;;
8500;SDS011;4288;48.484;10.024;2022-09-16T13:53:45;5.20;;;3.20;;
8500;SDS011;4288;48.484;10.024;2022-09-16T13:56:23;12.87;;;3.80;;
8500;SDS011;4288;48.484;10.024;2022-09-16T13:59:02;4.50;;;3.37;;
8500;SDS011;4288;48.484;10.024;2022-09-16T14:01:37;6.77;;;3.10;;
8500;SDS011;4288;48.484;10.024;2022-09-16T14:04:12;7.20;;;3.07;;
8500;SDS011;4288;48.484;10.024;2022-09-16T14:06:46;7.40;;;2.60;;
8500;SDS011;4288;48.484;10.024;2022-09-16T14:09:27;6.27;;;2.80;;
8500;SDS011;4288;48.484;10.024;2022-09-16T14:11:59;6.43;;;3.30;;
8500;SDS011;4288;48.484;10.024;2022-09-16T14:14:30;7.00;;;2.80;;
8500;SDS011;4288;48.484;10.024;2022-09-16T14:16:59;6.33;;;3.33;;
8500;SDS011;4288;48.484;10.024;2022-09-16T14:19:31;7.87;;;3.10;;
8500;SDS011;4288;48.484;10.024;2022-09-16T14:22:03;5.83;;;3.07;;
8500;SDS011;4288;48.484;10.024;2022-09-16T14:24:32;7.23;;;4.17;;
8500;SDS011;4288;48.484;10.024;2022-09-16T14:27:00;7.63;;;3.40;;
8500;SDS011;4288;48.484;10.024;2022-09-16T14:29:26;7.20;;;3.30;;
8500;SDS011;4288;48.484;10.024;2022-09-16T14:31:54;5.03;;;3.30;;
8500;SDS011;4288;48.484;10.024;2022-09-16T14:34:24;8.03;;;2.80;;
8500;SDS011;4288;48.484;10.024;2022-09-16T14:36:52;4.10;;;2.80;;
8500;SDS011;4288;48.484;10.024;2022-09-16T14:39:21;7.03;;;3.80;;
8500;SDS011;4288;48.484;10.024;2022-09-16T14:41:50;10.43;;;3.60;;
8500;SDS011;4288;48.484;10.024;2022-09-16T14:44:19;8.27;;;3.73;;
8500;SDS011;4288;48.484;10.024;2022-09-16T14:46:49;7.57;;;3.80;;
8500;SDS011;4288;48.484;10.024;2022-09-16T14:49:17;6.87;;;3.30;;
8500;SDS011;4288;48.484;10.024;2022-09-16T14:51:46;5.73;;;3.77;;
8500;SDS011;4288;48.484;10.024;2022-09-16T14:54:17;12.93;;;3.37;;
8500;SDS011;4288;48.484;10.024;2022-09-16T14:56:56;3.87;;;3.27;;
8500;SDS011;4288;48.484;10.024;2022-09-16T14:59:25;6.00;;;3.63;;
8500;SDS011;4288;48.484;10.024;2022-09-16T15:01:53;7.73;;;3.40;;
8500;SDS011;4288;48.484;10.024;2022-09-16T15:04:23;4.87;;;3.53;;
8500;SDS011;4288;48.484;10.024;2022-09-16T15:06:53;8.70;;;3.57;;
8500;SDS011;4288;48.484;10.024;2022-09-16T15:09:24;7.80;;;4.40;;
8500;SDS011;4288;48.484;10.024;2022-09-16T15:11:58;7.97;;;3.70;;
8500;SDS011;4288;48.484;10.024;2022-09-16T15:14:25;8.60;;;4.60;;
8500;SDS011;4288;48.484;10.024;2022-09-16T15:16:53;7.77;;;4.10;;
8500;SDS011;4288;48.484;10.024;2022-09-16T15:19:22;6.03;;;3.13;;
8500;SDS011;4288;48.484;10.024;2022-09-16T15:21:51;7.73;;;3.80;;
8500;SDS011;4288;48.484;10.024;2022-09-16T15:24:20;4.60;;;3.60;;
8500;SDS011;4288;48.484;10.024;2022-09-16T15:26:48;5.30;;;3.70;;
8500;SDS011;4288;48.484;10.024;2022-09-16T15:29:27;5.70;;;3.60;;
8500;SDS011;4288;48.484;10.024;2022-09-16T15:32:05;7.57;;;4.00;;
8500;SDS011;4288;48.484;10.024;2022-09-16T15:34:40;5.10;;;3.90;;
8500;SDS011;4288;48.484;10.024;2022-09-16T15:40:06;7.53;;;4.50;;
8500;SDS011;4288;48.484;10.024;2022-09-16T15:42:34;5.70;;;3.70;;
8500;SDS011;4288;48.484;10.024;2022-09-16T15:45:03;8.20;;;3.30;;
8500;SDS011;4288;48.484;10.024;2022-09-16T15:47:45;5.00;;;3.50;;
8500;SDS011;4288;48.484;10.024;2022-09-16T15:50:21;7.87;;;4.10;;
8500;SDS011;4288;48.484;10.024;2022-09-16T15:52:49;8.03;;;3.67;;
8500;SDS011;4288;48.484;10.024;2022-09-16T15:55:23;6.33;;;3.90;;
8500;SDS011;4288;48.484;10.024;2022-09-16T15:57:56;4.90;;;3.70;;
8500;SDS011;4288;48.484;10.024;2022-09-16T16:00:26;8.10;;;4.17;;
8500;SDS011;4288;48.484;10.024;2022-09-16T16:02:54;7.63;;;3.83;;
8500;SDS011;4288;48.484;10.024;2022-09-16T16:05:29;7.20;;;3.37;;
8500;SDS011;4288;48.484;10.024;2022-09-16T16:07:57;5.77;;;4.07;;
8500;SDS011;4288;48.484;10.024;2022-09-16T16:10:25;7.80;;;3.70;;
8500;SDS011;4288;48.484;10.024;2022-09-16T16:12:54;5.40;;;3.63;;
8500;SDS011;4288;48.484;10.024;2022-09-16T16:15:22;5.70;;;3.67;;
8500;SDS011;4288;48.484;10.024;2022-09-16T16:17:52;6.87;;;3.07;;
8500;SDS011;4288;48.484;10.024;2022-09-16T16:20:20;8.57;;;4.03;;
8500;SDS011;4288;48.484;10.024;2022-09-16T16:22:48;6.10;;;3.50;;
8500;SDS011;4288;48.484;10.024;2022-09-16T16:25:15;5.03;;;3.10;;
8500;SDS011;4288;48.484;10.024;2022-09-16T16:27:42;6.70;;;3.30;;
8500;SDS011;4288;48.484;10.024;2022-09-16T16:30:09;3.93;;;3.30;;
8500;SDS011;4288;48.484;10.024;2022-09-16T16:32:37;4.83;;;3.30;;
8500;SDS011;4288;48.484;10.024;2022-09-16T16:35:05;10.33;;;4.20;;
8500;SDS011;4288;48.484;10.024;2022-09-16T16:37:33;4.90;;;3.33;;
8500;SDS011;4288;48.484;10.024;2022-09-16T16:40:00;7.83;;;3.60;;
8500;SDS011;4288;48.484;10.024;2022-09-16T16:42:28;6.50;;;3.60;;
8500;SDS011;4288;48.484;10.024;2022-09-16T16:44:55;5.17;;;3.47;;
8500;SDS011;4288;48.484;10.024;2022-09-16T16:47:22;6.83;;;4.17;;
8500;SDS011;4288;48.484;10.024;2022-09-16T16:49:48;5.17;;;3.40;;
8500;SDS011;4288;48.484;10.024;2022-09-16T16:52:17;6.00;;;3.80;;
8500;SDS011;4288;48.484;10.024;2022-09-16T16:54:44;3.90;;;2.77;;
8500;SDS011;4288;48.484;10.024;2022-09-16T16:57:11;7.73;;;3.70;;
8500;SDS011;4288;48.484;10.024;2022-09-16T16:59:38;6.13;;;3.60;;
8500;SDS011;4288;48.484;10.024;2022-09-16T17:02:05;5.90;;;3.23;;
8500;SDS011;4288;48.484;10.024;2022-09-16T17:04:31;5.53;;;3.50;;
8500;SDS011;4288;48.484;10.024;2022-09-16T17:06:58;3.87;;;2.50;;
8500;SDS011;4288;48.484;10.024;2022-09-16T17:09:27;5.73;;;3.50;;
8500;SDS011;4288;48.484;10.024;2022-09-16T17:11:55;3.87;;;3.10;;
8500;SDS011;4288;48.484;10.024;2022-09-16T17:14:23;4.00;;;2.77;;
8500;SDS011;4288;48.484;10.024;2022-09-16T17:16:51;4.80;;;3.00;;
8500;SDS011;4288;48.484;10.024;2022-09-16T17:19:19;5.00;;;3.30;;
8500;SDS011;4288;48.484;10.024;2022-09-16T17:21:46;3.50;;;2.80;;
8500;SDS011;4288;48.484;10.024;2022-09-16T17:24:14;4.43;;;3.27;;
8500;SDS011;4288;48.484;10.024;2022-09-16T17:26:42;2.87;;;2.43;;
8500;SDS011;4288;48.484;10.024;2022-09-16T17:29:10;7.83;;;2.63;;
8500;SDS011;4288;48.484;10.024;2022-09-16T17:31:37;6.60;;;3.40;;
8500;SDS011;4288;48.484;10.024;2022-09-16T17:34:04;11.87;;;2.70;;
8500;SDS011;4288;48.484;10.024;2022-09-16T17:36:34;3.90;;;2.53;;
8500;SDS011;4288;48.484;10.024;2022-09-16T17:39:03;6.47;;;3.00;;
8500;SDS011;4288;48.484;10.024;2022-09-16T17:41:31;4.53;;;2.93;;
8500;SDS011;4288;48.484;10.024;2022-09-16T17:44:02;3.93;;;2.60;;
8500;SDS011;4288;48.484;10.024;2022-09-16T17:46:30;2.73;;;2.40;;
8500;SDS011;4288;48.484;10.024;2022-09-16T17:48:57;4.07;;;2.43;;
8500;SDS011;4288;48.484;10.024;2022-09-16T17:51:25;3.20;;;2.50;;
8500;SDS011;4288;48.484;10.024;2022-09-16T17:53:52;3.67;;;2.57;;
8500;SDS011;4288;48.484;10.024;2022-09-16T17:56:19;3.23;;;2.10;;
8500;SDS011;4288;48.484;10.024;2022-09-16T17:58:46;8.70;;;2.40;;
8500;SDS011;4288;48.484;10.024;2022-09-16T18:01:16;3.27;;;2.40;;
8500;SDS011;4288;48.484;10.024;2022-09-16T18:03:44;3.53;;;2.20;;
8500;SDS011;4288;48.484;10.024;2022-09-16T18:06:12;4.67;;;2.50;;
8500;SDS011;4288;48.484;10.024;2022-09-16T18:08:40;5.17;;;2.80;;
8500;SDS011;4288;48.484;10.024;2022-09-16T18:11:08;2.77;;;2.40;;
8500;SDS011;4288;48.484;10.024;2022-09-16T18:13:36;3.23;;;2.27;;
8500;SDS011;4288;48.484;10.024;2022-09-16T18:16:04;2.60;;;2.00;;
8500;SDS011;4288;48.484;10.024;2022-09-16T18:18:33;2.40;;;2.10;;
8500;SDS011;4288;48.484;10.024;2022-09-16T18:21:01;6.40;;;2.60;;
8500;SDS011;4288;48.484;10.024;2022-09-16T18:23:29;4.13;;;2.70;;
8500;SDS011;4288;48.484;10.024;2022-09-16T18:25:56;2.93;;;2.47;;
8500;SDS011;4288;48.484;10.024;2022-09-16T18:28:23;3.63;;;2.20;;
8500;SDS011;4288;48.484;10.024;2022-09-16T18:30:59;2.17;;;1.97;;
8500;SDS011;4288;48.484;10.024;2022-09-16T18:33:26;2.33;;;1.90;;
8500;SDS011;4288;48.484;10.024;2022-09-16T18:35:57;3.90;;;2.20;;
8500;SDS011;4288;48.484;10.024;2022-09-16T18:38:26;2.40;;;2.20;;
8500;SDS011;4288;48.484;10.024;2022-09-16T18:41:01;3.90;;;2.10;;
8500;SDS011;4288;48.484;10.024;2022-09-16T18:43:32;1.97;;;1.70;;
8500;SDS011;4288;48.484;10.024;2022-09-16T18:46:09;3.00;;;2.03;;
8500;SDS011;4288;48.484;10.024;2022-09-16T18:48:37;5.40;;;2.23;;
8500;SDS011;4288;48.484;10.024;2022-09-16T18:51:11;3.10;;;2.20;;
8500;SDS011;4288;48.484;10.024;2022-09-16T18:53:42;5.07;;;2.33;;
8500;SDS011;4288;48.484;10.024;2022-09-16T18:56:10;3.37;;;2.17;;
8500;SDS011;4288;48.484;10.024;2022-09-16T18:58:37;4.00;;;2.20;;
8500;SDS011;4288;48.484;10.024;2022-09-16T19:01:05;4.07;;;2.20;;
8500;SDS011;4288;48.484;10.024;2022-09-16T19:03:34;2.57;;;1.80;;
8500;SDS011;4288;48.484;10.024;2022-09-16T19:06:01;4.20;;;1.50;;
8500;SDS011;4288;48.484;10.024;2022-09-16T19:08:29;3.63;;;2.03;;
8500;SDS011;4288;48.484;10.024;2022-09-16T19:11:00;2.23;;;1.80;;
8500;SDS011;4288;48.484;10.024;2022-09-16T19:13:27;1.90;;;1.63;;
8500;SDS011;4288;48.484;10.024;2022-09-16T19:15:54;2.10;;;1.67;;
8500;SDS011;4288;48.484;10.024;2022-09-16T19:18:21;5.33;;;1.90;;
8500;SDS011;4288;48.484;10.024;2022-09-16T19:20:48;2.77;;;2.20;;
8500;SDS011;4288;48.484;10.024;2022-09-16T19:23:15;2.87;;;2.33;;
8500;SDS011;4288;48.484;10.024;2022-09-16T19:25:43;2.27;;;1.70;;
8500;SDS011;4288;48.484;10.024;2022-09-16T19:28:10;3.60;;;2.07;;